Time;durP1;ratioP1;P1;durP2;ratioP2;P2;SDS_P1;SDS_P2;PMS_P1;PMS_P2;Temp;Humidity;BMP_temperature;BMP_pressure;BME280_temperature;BME280_humidity;BME280_pressure;Samples;Min_cycle;Max_cycle;Signal;HPM_P1;HPM_P2
2022/03/18 00:00:00;;;;;;;19.45;10.75;;;;;;;4.39;68.54;103692.06;5029609;28;20034;-77
2022/03/18 00:02:26;;;;;;;17.40;10.63;;;;;;;4.35;68.89;103685.22;5027310;28;20030;-78
2022/03/18 00:04:53;;;;;;;15.70;9.90;;;;;;;4.35;68.87;103693.25;5029428;28;20576;-77
2022/03/18 00:07:21;;;;;;;18.63;10.77;;;;;;;4.34;68.84;103692.44;5014773;28;20042;-79
2022/03/18 00:09:48;;;;;;;18.13;10.20;;;;;;;4.28;68.70;103700.91;5013962;28;20030;-77
2022/03/18 00:12:13;;;;;;;17.40;10.65;;;;;;;4.13;68.59;103712.78;5014064;28;20030;-77
2022/03/18 00:14:39;;;;;;;21.38;11.30;;;;;;;4.08;69.48;103707.75;5013888;28;20044;-78
2022/03/18 00:17:09;;;;;;;20.58;11.60;;;;;;;4.04;69.12;103708.94;5014421;28;20034;-78
2022/03/18 00:19:36;;;;;;;17.77;10.75;;;;;;;4.02;69.65;103710.88;5012073;28;20038;-77
2022/03/18 00:22:02;;;;;;;22.25;11.80;;;;;;;4.02;69.66;103711.72;5013960;28;20029;-77
2022/03/18 00:24:28;;;;;;;21.02;10.90;;;;;;;3.94;69.85;103716.78;5029309;28;20030;-80
2022/03/18 00:26:54;;;;;;;19.58;10.27;;;;;;;3.93;69.97;103711.53;5014241;28;20041;-79
2022/03/18 00:29:20;;;;;;;21.48;10.75;;;;;;;3.97;70.26;103708.53;5013909;28;20092;-77
2022/03/18 00:31:45;;;;;;;16.90;9.95;;;;;;;3.98;69.63;103704.88;5028878;28;20176;-77
2022/03/18 00:34:10;;;;;;;16.85;10.18;;;;;;;3.94;69.73;103700.72;5033781;28;20155;-78
2022/03/18 00:36:36;;;;;;;21.45;9.63;;;;;;;3.98;69.46;103710.22;5033300;28;20037;-79
2022/03/18 00:39:02;;;;;;;17.65;9.63;;;;;;;3.88;69.58;103706.50;5014067;28;20463;-77
2022/03/18 00:41:28;;;;;;;20.98;9.50;;;;;;;3.85;69.54;103704.03;5013673;28;20444;-79
2022/03/18 00:43:53;;;;;;;17.10;9.90;;;;;;;3.84;69.26;103707.69;5013687;28;20049;-77
2022/03/18 00:46:22;;;;;;;17.88;10.00;;;;;;;3.83;70.09;103708.66;5009597;28;20125;-79
2022/03/18 00:54:15;;;;;;;14.82;8.82;;;;;;;3.65;70.22;103730.41;5010253;28;20041;-78
2022/03/18 00:56:41;;;;;;;15.65;8.57;;;;;;;3.59;70.75;103727.31;5012121;28;20030;-78
2022/03/18 00:59:06;;;;;;;17.45;8.73;;;;;;;3.56;70.67;103736.41;5013064;28;20037;-78
2022/03/18 01:01:32;;;;;;;19.30;9.45;;;;;;;3.50;71.18;103729.69;5011115;28;20033;-77
2022/03/18 01:03:58;;;;;;;20.50;9.27;;;;;;;3.52;70.60;103734.94;5028245;28;20026;-77
2022/03/18 01:06:23;;;;;;;16.83;9.30;;;;;;;3.52;70.51;103734.94;5013598;28;20492;-78
2022/03/18 01:08:48;;;;;;;17.90;9.10;;;;;;;3.44;71.00;103742.63;5013249;28;20030;-77
2022/03/18 01:11:14;;;;;;;17.15;8.68;;;;;;;3.30;70.91;103747.13;5013188;28;20366;-78
2022/03/18 01:13:39;;;;;;;15.68;8.85;;;;;;;3.20;71.21;103751.38;5012840;28;20037;-77
2022/03/18 01:16:05;;;;;;;15.95;8.30;;;;;;;3.15;71.84;103749.03;5011895;28;20462;-76
2022/03/18 01:18:30;;;;;;;15.93;8.30;;;;;;;3.22;71.39;103744.13;5012943;28;20489;-77
2022/03/18 01:20:56;;;;;;;16.33;8.10;;;;;;;3.21;71.19;103753.09;5012977;28;20100;-77
2022/03/18 01:23:21;;;;;;;17.55;8.57;;;;;;;3.16;71.15;103752.56;5028379;28;20531;-78
2022/03/18 01:25:46;;;;;;;15.10;7.70;;;;;;;3.10;70.57;103744.97;5012895;28;20473;-76
2022/03/18 01:28:11;;;;;;;14.13;7.20;;;;;;;3.05;71.62;103747.06;5044955;28;20362;-79
2022/03/18 01:30:37;;;;;;;15.98;7.60;;;;;;;3.02;71.88;103748.16;5012520;28;20034;-78
2022/03/18 01:33:02;;;;;;;14.32;7.80;;;;;;;3.00;71.48;103737.56;5012993;28;20038;-78
2022/03/18 01:35:29;;;;;;;16.08;7.65;;;;;;;2.97;72.09;103743.09;5012981;28;20080;-77
2022/03/18 01:37:54;;;;;;;13.38;7.53;;;;;;;3.01;71.71;103744.59;5012410;28;20029;-77
2022/03/18 01:40:19;;;;;;;13.10;7.57;;;;;;;3.03;71.83;103740.97;5012868;28;20026;-76
2022/03/18 01:42:45;;;;;;;15.00;7.38;;;;;;;3.03;71.53;103744.50;5012300;28;20080;-78
2022/03/18 01:45:10;;;;;;;15.70;7.55;;;;;;;3.04;71.26;103745.38;5012971;28;20109;-78
2022/03/18 01:47:36;;;;;;;15.57;7.30;;;;;;;3.09;71.12;103743.25;5010303;28;20049;-77
2022/03/18 01:50:02;;;;;;;15.45;7.30;;;;;;;3.06;70.97;103746.13;5011023;28;20080;-77
2022/03/18 01:52:28;;;;;;;16.20;8.57;;;;;;;2.99;71.14;103746.53;5012567;28;20034;-77
2022/03/18 01:54:54;;;;;;;17.85;7.65;;;;;;;2.96;71.27;103753.91;5044009;28;20096;-77
2022/03/18 01:57:24;;;;;;;13.60;7.43;;;;;;;2.94;71.18;103748.66;5012457;28;20030;-77
2022/03/18 01:59:51;;;;;;;20.67;7.60;;;;;;;2.93;71.70;103743.41;5010718;28;20041;-77
2022/03/18 02:02:17;;;;;;;12.98;7.15;;;;;;;2.97;71.72;103751.13;5025577;28;20034;-76
2022/03/18 02:04:44;;;;;;;18.52;7.65;;;;;;;2.93;71.00;103744.28;5012537;28;20087;-79
2022/03/18 02:07:10;;;;;;;14.00;7.22;;;;;;;2.87;71.10;103744.69;5011438;28;20545;-78
2022/03/18 02:09:37;;;;;;;12.48;7.32;;;;;;;2.89;71.49;103752.63;5011970;28;20404;-77
2022/03/18 02:12:04;;;;;;;17.98;7.57;;;;;;;2.81;71.75;103753.13;5012383;28;20114;-77
2022/03/18 02:14:34;;;;;;;17.65;8.00;;;;;;;2.76;72.05;103752.56;5012699;28;20037;-78
2022/03/18 02:17:02;;;;;;;14.57;7.60;;;;;;;2.70;71.38;103752.97;5011018;28;20915;-77
2022/03/18 02:19:27;;;;;;;16.15;7.32;;;;;;;2.71;71.66;103765.38;5012387;28;20034;-78
2022/03/18 02:21:54;;;;;;;17.98;7.50;;;;;;;2.69;71.66;103768.16;5012551;28;20025;-78
2022/03/18 02:24:21;;;;;;;15.93;7.28;;;;;;;2.71;72.44;103765.38;5044137;28;20117;-78
2022/03/18 02:26:47;;;;;;;17.15;7.07;;;;;;;2.74;72.08;103765.19;5027381;28;20042;-78
2022/03/18 02:29:13;;;;;;;15.43;7.88;;;;;;;2.78;72.35;103764.03;5012263;28;20091;-78
2022/03/18 02:31:38;;;;;;;15.35;7.43;;;;;;;2.78;71.73;103756.00;5012478;28;20038;-79
2022/03/18 02:34:03;;;;;;;13.65;7.43;;;;;;;2.84;71.76;103753.78;5012361;28;20100;-78
2022/03/18 02:36:28;;;;;;;16.77;7.85;;;;;;;2.83;71.52;103760.06;5012193;28;20036;-77
2022/03/18 02:38:54;;;;;;;15.88;7.57;;;;;;;2.75;71.40;103773.09;4994149;28;20125;-78
2022/03/18 02:41:19;;;;;;;14.15;7.65;;;;;;;2.64;71.57;103768.47;5027199;28;20112;-78
2022/03/18 02:43:46;;;;;;;13.98;7.47;;;;;;;2.64;71.79;103772.94;5029071;28;20030;-78
2022/03/18 02:46:11;;;;;;;12.75;7.65;;;;;;;2.61;71.65;103774.03;5011691;28;20029;-78
2022/03/18 02:48:36;;;;;;;16.70;7.40;;;;;;;2.58;71.45;103776.91;5012143;28;20065;-78
2022/03/18 02:51:02;;;;;;;17.20;7.90;;;;;;;2.62;72.21;103773.03;5011709;28;20030;-77
2022/03/18 02:53:27;;;;;;;13.05;7.45;;;;;;;2.64;71.89;103773.81;5012256;28;20040;-77
2022/03/18 02:55:54;;;;;;;15.07;7.85;;;;;;;2.59;72.00;103773.25;5014198;28;20095;-76
2022/03/18 02:58:19;;;;;;;13.48;7.00;;;;;;;2.59;71.63;103773.25;5015600;28;20501;-76
2022/03/18 03:00:45;;;;;;;16.70;7.70;;;;;;;2.57;71.96;103775.16;5013084;28;20058;-75
2022/03/18 03:03:10;;;;;;;14.00;7.85;;;;;;;2.54;71.70;103786.06;5016114;28;20034;-75
2022/03/18 03:08:19;;;;;;;13.88;7.57;;;;;;;2.58;72.66;103790.25;5015720;28;20048;-76
2022/03/18 03:10:44;;;;;;;13.02;7.35;;;;;;;2.57;72.53;103801.91;5014510;28;20455;-76
2022/03/18 03:13:10;;;;;;;15.75;7.78;;;;;;;2.53;72.40;103797.69;5015568;28;20033;-76
2022/03/18 03:15:38;;;;;;;17.17;7.70;;;;;;;2.47;72.19;103804.28;5030909;28;20036;-76
2022/03/18 03:18:04;;;;;;;15.32;7.93;;;;;;;2.43;72.15;103804.59;5015002;28;20041;-76
2022/03/18 03:20:29;;;;;;;15.23;7.57;;;;;;;2.42;73.04;103806.41;5015151;28;20030;-76
2022/03/18 03:22:54;;;;;;;16.42;7.72;;;;;;;2.40;72.34;103800.31;5015273;28;20037;-75
2022/03/18 03:25:20;;;;;;;17.15;7.15;;;;;;;2.39;72.58;103803.94;5015193;28;20492;-77
2022/03/18 03:27:45;;;;;;;17.48;7.65;;;;;;;2.26;72.94;103798.50;5049556;28;20036;-77
2022/03/18 03:30:11;;;;;;;21.48;7.07;;;;;;;2.21;73.25;103816.66;5035028;28;20057;-75
2022/03/18 03:32:38;;;;;;;13.93;7.43;;;;;;;2.22;72.62;103818.38;5034944;28;20033;-74
2022/03/18 03:35:05;;;;;;;17.75;7.68;;;;;;;2.23;73.03;103808.53;5035056;28;20076;-79
2022/03/18 03:37:30;;;;;;;13.55;7.70;;;;;;;2.23;73.30;103804.03;5022515;28;20109;-76
2022/03/18 03:39:56;;;;;;;16.80;7.40;;;;;;;2.20;73.13;103798.03;5024021;28;20117;-75
2022/03/18 03:42:21;;;;;;;14.38;7.65;;;;;;;2.23;72.18;103811.22;5015069;28;20038;-75
2022/03/18 03:44:47;;;;;;;14.82;7.05;;;;;;;2.19;72.37;103818.56;5014691;28;20080;-75
2022/03/18 03:47:13;;;;;;;20.30;7.80;;;;;;;2.12;73.31;103827.91;5046178;28;20085;-75
2022/03/18 03:49:39;;;;;;;18.00;7.43;;;;;;;2.07;73.56;103822.88;5014822;28;20068;-75
2022/03/18 03:52:04;;;;;;;13.43;7.82;;;;;;;2.04;73.41;103832.88;5014609;28;20065;-76
2022/03/18 03:54:30;;;;;;;14.50;7.35;;;;;;;2.08;73.38;103829.06;5014788;28;20057;-75
2022/03/18 03:56:56;;;;;;;14.30;7.20;;;;;;;2.09;72.88;103830.78;5014000;28;20080;-76
2022/03/18 03:59:21;;;;;;;13.68;7.07;;;;;;;2.11;73.38;103826.19;5014421;28;20022;-75
2022/03/18 04:01:47;;;;;;;18.60;7.50;;;;;;;2.06;72.99;103829.16;5012343;28;20038;-77
2022/03/18 04:04:12;;;;;;;18.15;7.72;;;;;;;2.02;72.97;103837.47;5014792;28;20022;-76
2022/03/18 04:06:38;;;;;;;20.05;7.45;;;;;;;1.99;73.04;103856.34;5013229;28;20065;-75
2022/03/18 04:09:04;;;;;;;14.93;7.25;;;;;;;1.95;72.92;103853.84;5014344;28;20045;-76
2022/03/18 04:11:30;;;;;;;16.17;6.47;;;;;;;1.97;73.57;103858.25;5029520;28;20029;-75
2022/03/18 04:13:56;;;;;;;10.95;6.75;;;;;;;1.91;73.60;103852.31;5045812;28;20061;-75
2022/03/18 04:16:21;;;;;;;11.82;6.40;;;;;;;1.89;73.40;103856.06;5012836;28;20092;-76
2022/03/18 04:18:47;;;;;;;12.80;6.65;;;;;;;1.90;73.94;103855.97;5012808;28;20034;-75
2022/03/18 04:21:13;;;;;;;13.27;6.28;;;;;;;1.86;73.43;103865.09;5029261;28;20029;-75
2022/03/18 04:23:39;;;;;;;15.65;6.70;;;;;;;1.90;73.57;103860.44;5018727;28;20440;-75
2022/03/18 04:26:05;;;;;;;11.02;6.63;;;;;;;1.83;73.41;103867.97;5033691;28;20033;-75
2022/03/18 04:28:30;;;;;;;12.77;6.47;;;;;;;1.79;73.62;103871.75;5012177;28;20034;-74
2022/03/18 04:30:55;;;;;;;11.98;6.95;;;;;;;1.79;73.58;103884.25;5013812;28;20072;-75
2022/03/18 04:33:21;;;;;;;11.43;7.03;;;;;;;1.77;73.69;103874.53;5031352;28;20188;-76
2022/03/18 04:35:46;;;;;;;15.77;6.55;;;;;;;1.77;73.19;103879.03;5033493;28;20029;-74
2022/03/18 04:38:11;;;;;;;12.32;6.68;;;;;;;1.72;74.22;103883.75;5017035;28;20482;-75
2022/03/18 04:40:36;;;;;;;16.08;6.85;;;;;;;1.70;73.53;103891.00;5013983;28;20079;-75
2022/03/18 04:43:02;;;;;;;15.82;7.30;;;;;;;1.69;73.49;103890.16;5013645;28;20033;-75
2022/03/18 04:45:27;;;;;;;16.45;6.95;;;;;;;1.73;73.75;103886.34;5014958;28;20037;-74
2022/03/18 04:47:52;;;;;;;15.82;6.72;;;;;;;1.80;73.63;103886.84;5019617;28;20052;-74
2022/03/18 04:50:18;;;;;;;14.55;6.30;;;;;;;1.79;72.50;103885.13;5014151;28;20033;-74
2022/03/18 04:52:43;;;;;;;14.60;6.57;;;;;;;1.73;73.31;103880.16;5012376;28;20420;-75
2022/03/18 04:55:09;;;;;;;17.40;6.70;;;;;;;1.67;73.33;103893.84;5013636;28;20445;-75
2022/03/18 04:57:35;;;;;;;12.35;6.88;;;;;;;1.66;73.92;103894.81;5013136;28;20485;-75
2022/03/18 05:00:00;;;;;;;11.82;6.50;;;;;;;1.64;73.66;103888.72;5012179;28;20038;-74
2022/03/18 05:02:26;;;;;;;13.98;6.75;;;;;;;1.64;74.01;103899.38;5008144;28;20416;-74
2022/03/18 05:04:53;;;;;;;14.40;6.63;;;;;;;1.63;73.70;103905.66;5028495;28;20026;-75
2022/03/18 05:07:18;;;;;;;12.07;6.45;;;;;;;1.66;74.03;103902.81;5013327;28;20062;-75
2022/03/18 05:09:48;;;;;;;13.52;6.95;;;;;;;1.64;73.85;103902.91;5013521;28;20485;-75
2022/03/18 05:12:15;;;;;;;15.90;6.35;;;;;;;1.59;73.09;103911.19;5013057;28;20037;-75
2022/03/18 05:14:41;;;;;;;18.25;7.15;;;;;;;1.58;73.64;103914.78;5013025;28;20030;-74
2022/03/18 05:17:09;;;;;;;14.10;7.30;;;;;;;1.66;73.71;103916.16;5027763;28;20034;-74
2022/03/18 05:19:35;;;;;;;16.33;7.10;;;;;;;1.62;73.41;103922.66;5027952;28;20512;-74
2022/03/18 05:22:01;;;;;;;13.45;6.95;;;;;;;1.64;73.93;103926.94;5012747;28;20030;-74
2022/03/18 05:24:26;;;;;;;17.42;6.82;;;;;;;1.69;74.26;103921.31;5028634;28;20033;-74
2022/03/18 05:26:53;;;;;;;15.70;6.70;;;;;;;1.61;73.72;103924.44;5044328;28;20128;-74
2022/03/18 05:29:18;;;;;;;12.38;6.90;;;;;;;1.62;73.41;103925.31;5028014;28;20028;-75
2022/03/18 05:31:45;;;;;;;11.98;6.13;;;;;;;1.57;73.14;103918.44;5011695;28;20124;-74
2022/03/18 05:34:11;;;;;;;12.15;6.50;;;;;;;1.56;73.36;103932.72;5012894;28;20040;-74
2022/03/18 05:36:36;;;;;;;14.60;6.95;;;;;;;1.56;72.81;103930.06;5012627;28;20045;-75
2022/03/18 05:39:02;;;;;;;13.77;7.18;;;;;;;1.52;72.97;103933.00;5028020;28;20072;-75
2022/03/18 05:41:27;;;;;;;15.95;6.93;;;;;;;1.52;73.75;103925.81;5014729;28;20092;-75
2022/03/18 05:43:52;;;;;;;19.63;6.70;;;;;;;1.50;72.99;103938.41;5032787;28;20112;-74
2022/03/18 05:46:18;;;;;;;14.77;6.90;;;;;;;1.52;73.45;103939.16;5019877;28;20124;-75
2022/03/18 05:48:43;;;;;;;11.60;6.93;;;;;;;1.60;73.80;103933.38;5011338;28;20058;-75
2022/03/18 05:51:12;;;;;;;15.63;7.30;;;;;;;1.61;73.95;103936.94;5012581;28;20030;-74
2022/03/18 05:53:38;;;;;;;14.40;7.47;;;;;;;1.63;73.98;103924.34;5012863;28;20025;-74
2022/03/18 05:58:48;;;;;;;15.85;7.60;;;;;;;1.63;73.90;103921.69;5004644;28;20048;-74
2022/03/18 06:01:14;;;;;;;14.18;7.47;;;;;;;1.62;73.61;103941.34;5010217;28;20042;-74
2022/03/18 06:03:40;;;;;;;18.15;8.15;;;;;;;1.63;73.93;103951.03;5011579;28;20492;-75
2022/03/18 06:06:06;;;;;;;17.25;8.35;;;;;;;1.62;74.67;103957.34;5011041;28;20041;-74
2022/03/18 06:13:59;;;;;;;15.80;8.70;;;;;;;1.84;73.77;103952.47;5012222;28;20052;-76
2022/03/18 06:16:24;;;;;;;13.82;8.30;;;;;;;1.83;74.16;103955.22;5025434;28;20038;-75
2022/03/18 06:18:50;;;;;;;15.02;8.02;;;;;;;1.83;73.39;103958.75;5012958;28;20041;-75
2022/03/18 06:21:16;;;;;;;17.17;8.18;;;;;;;1.88;73.45;103970.00;5010869;28;20602;-76
2022/03/18 06:23:42;;;;;;;18.88;8.65;;;;;;;1.90;73.43;103967.25;5012388;28;20076;-75
2022/03/18 06:26:07;;;;;;;17.17;8.55;;;;;;;1.93;74.64;103978.63;5029998;28;20018;-75
2022/03/18 06:28:33;;;;;;;18.98;8.30;;;;;;;1.98;73.51;103985.50;5031994;28;20064;-75
2022/03/18 06:30:58;;;;;;;18.50;8.50;;;;;;;1.93;73.74;103983.97;5034496;28;20475;-75
2022/03/18 06:33:23;;;;;;;14.32;8.18;;;;;;;2.00;74.19;103983.59;5035999;28;20453;-75
2022/03/18 06:35:49;;;;;;;20.60;7.78;;;;;;;1.98;74.08;103983.69;5027471;28;20113;-75
2022/03/18 06:38:14;;;;;;;17.60;8.27;;;;;;;2.04;74.16;103985.13;5014494;28;20472;-74
2022/03/18 06:40:40;;;;;;;15.15;8.18;;;;;;;2.05;74.14;103987.69;5016069;28;20051;-74
2022/03/18 06:43:05;;;;;;;20.40;8.85;;;;;;;2.06;73.86;103988.59;5015552;28;20034;-75
2022/03/18 06:45:31;;;;;;;15.40;8.45;;;;;;;2.06;74.05;103993.94;5015773;28;20057;-75
2022/03/18 06:47:56;;;;;;;18.73;8.68;;;;;;;2.13;74.42;103992.63;5014363;28;20054;-75
2022/03/18 06:50:22;;;;;;;16.63;8.82;;;;;;;2.17;74.37;103996.81;5015175;28;20087;-75
2022/03/18 06:52:48;;;;;;;18.13;8.93;;;;;;;2.20;75.03;104004.63;5047595;28;20484;-75
2022/03/18 06:55:13;;;;;;;15.63;8.77;;;;;;;2.32;74.57;104007.53;5015092;28;20042;-75
2022/03/18 06:57:38;;;;;;;23.38;10.07;;;;;;;2.36;74.57;104007.25;5030989;28;20038;-75
2022/03/18 07:00:05;;;;;;;21.10;9.73;;;;;;;2.42;74.33;104003.34;5015978;28;20033;-77
2022/03/18 07:02:30;;;;;;;22.33;10.27;;;;;;;2.46;74.00;104010.22;5011386;28;20053;-76
2022/03/18 07:04:55;;;;;;;21.40;10.65;;;;;;;2.53;74.85;104008.91;5016039;28;20069;-75
2022/03/18 07:07:21;;;;;;;18.80;9.38;;;;;;;2.60;75.30;104009.41;5013942;28;20037;-74
2022/03/18 07:09:46;;;;;;;21.13;9.40;;;;;;;2.64;74.80;104016.25;5014403;28;20030;-76
2022/03/18 07:12:12;;;;;;;15.75;9.57;;;;;;;2.72;75.17;104013.09;5013427;28;20049;-80
2022/03/18 07:14:37;;;;;;;22.15;10.00;;;;;;;2.83;75.65;104015.97;5014158;28;20033;-76
2022/03/18 07:19:47;;;;;;;20.60;10.10;;;;;;;3.12;76.04;104015.97;5015493;28;20066;-78
2022/03/18 07:22:12;;;;;;;21.73;10.43;;;;;;;3.27;76.48;104024.84;5014754;28;20022;-79
2022/03/18 07:24:37;;;;;;;23.95;9.80;;;;;;;3.43;77.27;104019.34;4997566;28;20055;-77
2022/03/18 07:27:03;;;;;;;18.42;9.40;;;;;;;3.54;76.58;104028.38;5009381;28;20110;-78
2022/03/18 07:29:28;;;;;;;19.73;9.00;;;;;;;3.65;76.48;104025.00;5014006;28;20045;-77
2022/03/18 07:31:55;;;;;;;22.55;9.02;;;;;;;3.77;76.76;104017.13;5030271;28;20029;-75
2022/03/18 07:34:23;;;;;;;18.45;9.38;;;;;;;3.92;76.39;104024.16;5016957;28;20041;-77
2022/03/18 07:36:49;;;;;;;23.42;9.43;;;;;;;4.04;76.90;104034.03;5017250;28;20041;-78
2022/03/18 07:39:17;;;;;;;22.27;9.50;;;;;;;4.15;76.84;104041.38;5013592;28;20032;-75
2022/03/18 07:41:43;;;;;;;21.77;8.60;;;;;;;4.26;76.81;104035.28;5014819;28;20100;-76
2022/03/18 07:44:08;;;;;;;20.77;8.20;;;;;;;4.37;75.39;104043.44;5014890;28;20413;-77
2022/03/18 07:46:34;;;;;;;20.05;8.40;;;;;;;4.48;76.04;104055.25;5013965;28;20445;-76
2022/03/18 07:49:00;;;;;;;18.60;8.30;;;;;;;4.54;75.74;104065.56;5032705;28;20053;-77
2022/03/18 07:51:25;;;;;;;18.92;8.13;;;;;;;4.64;75.39;104069.31;5034555;28;20022;-76
2022/03/18 07:53:51;;;;;;;18.48;7.72;;;;;;;4.74;75.22;104075.78;5034352;28;20051;-77
2022/03/18 07:56:16;;;;;;;17.10;7.30;;;;;;;4.81;75.37;104075.34;5033132;28;20087;-77
2022/03/18 07:58:41;;;;;;;17.65;8.30;;;;;;;4.87;75.21;104070.38;5013084;28;20034;-76
2022/03/18 08:01:07;;;;;;;21.25;7.45;;;;;;;4.95;75.21;104081.47;5010653;28;20037;-77
2022/03/18 08:03:32;;;;;;;22.35;8.68;;;;;;;5.02;74.94;104078.34;5014708;28;20038;-78
2022/03/18 08:05:57;;;;;;;17.48;8.05;;;;;;;5.10;75.13;104076.84;5013540;28;20042;-78
2022/03/18 08:08:23;;;;;;;18.25;8.65;;;;;;;5.16;75.00;104088.94;5012535;28;20049;-76
2022/03/18 08:10:51;;;;;;;22.35;8.75;;;;;;;5.22;74.81;104084.97;5014060;28;20034;-76
2022/03/18 08:13:17;;;;;;;20.95;8.70;;;;;;;5.27;74.29;104085.50;5028905;28;20061;-77
2022/03/18 08:15:44;;;;;;;19.02;8.88;;;;;;;5.34;74.72;104086.75;5029380;28;20124;-75
2022/03/18 08:18:10;;;;;;;28.67;10.07;;;;;;;5.42;74.81;104084.41;5013987;28;20034;-75
2022/03/18 08:20:40;;;;;;;20.27;9.02;;;;;;;5.54;74.29;104092.53;5014243;28;20053;-78
2022/03/18 08:23:09;;;;;;;23.50;8.10;;;;;;;5.59;74.97;104095.75;5014095;28;20482;-76
2022/03/18 08:25:34;;;;;;;18.90;7.80;;;;;;;5.66;74.17;104097.88;5029151;28;20022;-75
2022/03/18 08:28:00;;;;;;;20.80;7.53;;;;;;;5.73;74.00;104097.41;5014285;28;20109;-78
2022/03/18 08:30:25;;;;;;;16.40;6.35;;;;;;;5.77;72.85;104091.72;5014157;28;20042;-76
2022/03/18 08:32:50;;;;;;;17.20;6.80;;;;;;;5.90;72.55;104088.09;5013970;28;20034;-75
2022/03/18 08:35:16;;;;;;;14.23;7.00;;;;;;;6.00;71.89;104105.31;5012362;28;20038;-75
2022/03/18 08:37:56;;;;;;;20.20;6.80;;;;;;;6.10;71.29;104106.34;5013705;28;20040;-75
2022/03/18 08:40:32;;;;;;;18.65;5.85;;;;;;;6.18;71.45;104106.59;5012286;28;20034;-76
2022/03/18 08:42:58;;;;;;;26.67;6.55;;;;;;;6.35;71.34;104104.47;5014075;28;20100;-79
2022/03/18 08:45:24;;;;;;;22.10;6.32;;;;;;;6.41;70.10;104119.28;5012363;28;20125;-76
2022/03/18 08:47:50;;;;;;;16.13;5.68;;;;;;;6.46;69.60;104112.59;5012171;28;20489;-76
2022/03/18 08:50:17;;;;;;;16.95;6.72;;;;;;;6.53;69.22;104118.34;5028550;28;20036;-76
2022/03/18 08:52:42;;;;;;;16.70;5.90;;;;;;;6.62;69.50;104120.31;5011609;28;20034;-76
2022/03/18 08:55:08;;;;;;;16.30;5.50;;;;;;;6.70;68.61;104127.81;5028019;28;20135;-75
2022/03/18 08:57:37;;;;;;;14.80;5.85;;;;;;;6.75;67.19;104133.72;5013594;28;20041;-76
2022/03/18 09:00:05;;;;;;;12.80;5.35;;;;;;;6.85;67.35;104144.59;5024836;28;20048;-76
2022/03/18 09:02:30;;;;;;;20.52;6.45;;;;;;;6.90;67.80;104148.66;5013168;28;20041;-77
2022/03/18 09:04:56;;;;;;;20.08;6.03;;;;;;;6.98;67.12;104134.59;5032060;28;20606;-77
2022/03/18 09:07:21;;;;;;;15.23;6.03;;;;;;;7.04;68.70;104142.19;5030905;28;20036;-75
2022/03/18 09:09:46;;;;;;;14.38;5.60;;;;;;;7.13;66.46;104146.00;5011597;28;20038;-77
2022/03/18 09:12:12;;;;;;;12.43;5.35;;;;;;;7.21;65.51;104150.78;5012960;28;20034;-80
2022/03/18 09:14:37;;;;;;;17.17;5.32;;;;;;;7.27;64.25;104153.84;5028523;28;20029;-78
2022/03/18 09:17:04;;;;;;;12.98;5.00;;;;;;;7.34;64.71;104148.84;5044995;28;20385;-79
2022/03/18 09:19:30;;;;;;;13.85;5.20;;;;;;;7.41;64.74;104163.53;5028654;28;20040;-79
2022/03/18 09:21:55;;;;;;;13.32;4.88;;;;;;;7.51;64.33;104152.88;5013180;28;20026;-76
2022/03/18 09:24:21;;;;;;;13.18;5.35;;;;;;;7.58;65.14;104155.94;5012403;28;20034;-76
2022/03/18 09:26:46;;;;;;;15.15;5.55;;;;;;;7.65;64.19;104158.97;5011923;28;20173;-78
2022/03/18 09:29:12;;;;;;;11.98;5.10;;;;;;;7.73;64.20;104161.91;5012154;28;20060;-74
2022/03/18 09:31:37;;;;;;;13.43;5.20;;;;;;;7.80;63.25;104168.53;5031703;28;20076;-76
2022/03/18 09:34:03;;;;;;;11.73;4.70;;;;;;;7.85;62.73;104170.84;5032558;28;20087;-77
2022/03/18 09:36:28;;;;;;;11.93;4.68;;;;;;;7.90;62.62;104171.34;5032557;28;20033;-75
2022/03/18 09:38:55;;;;;;;10.93;4.70;;;;;;;7.93;61.64;104171.94;5033096;28;20029;-77
2022/03/18 09:41:20;;;;;;;15.30;4.75;;;;;;;7.99;62.14;104167.88;5032471;28;20033;-75
2022/03/18 09:43:46;;;;;;;13.10;4.95;;;;;;;8.07;61.94;104169.94;5027476;28;20032;-77
2022/03/18 09:46:13;;;;;;;11.60;4.43;;;;;;;8.14;62.32;104172.00;5012268;28;20034;-77
2022/03/18 09:48:40;;;;;;;11.38;4.50;;;;;;;8.26;61.22;104169.28;5032571;28;20055;-77
2022/03/18 09:51:06;;;;;;;13.00;3.97;;;;;;;8.37;60.13;104165.69;5023600;28;20030;-76
2022/03/18 09:53:34;;;;;;;9.57;3.92;;;;;;;8.46;59.18;104164.94;5012612;28;20053;-78
2022/03/18 09:56:00;;;;;;;11.43;3.97;;;;;;;8.51;59.26;104168.09;5011773;28;20045;-77
2022/03/18 09:58:26;;;;;;;8.55;3.85;;;;;;;8.58;57.50;104179.25;5011162;28;20046;-76
2022/03/18 10:00:57;;;;;;;7.80;3.38;;;;;;;8.66;57.36;104171.34;5009944;28;20025;-79
2022/03/18 10:03:34;;;;;;;7.85;3.17;;;;;;;8.74;56.92;104178.78;5024537;28;20171;-78
2022/03/18 10:06:00;;;;;;;9.48;3.40;;;;;;;8.82;55.92;104181.69;5017731;28;20038;-78
2022/03/18 10:08:44;;;;;;;8.63;3.70;;;;;;;8.93;57.06;104195.13;5015580;28;20040;-79
2022/03/18 10:11:16;;;;;;;8.10;3.40;;;;;;;9.00;56.41;104187.38;5028477;28;20041;-77
2022/03/18 10:14:02;;;;;;;;;;;;;;;9.02;59.74;104202.44;5019397;28;20117;-76
2022/03/18 10:16:39;;;;;;;17.95;4.00;;;;;;;9.17;56.00;104197.56;5016178;28;19993;-77
2022/03/18 10:19:11;;;;;;;9.25;3.67;;;;;;;9.28;55.76;104191.22;5015257;28;20416;-77
2022/03/18 10:21:55;;;;;;;;;;;;;;;9.32;58.60;104197.22;5015208;28;20033;-77
2022/03/18 10:24:37;;;;;;;7.40;3.75;;;;;;;9.39;56.82;104192.97;5016356;28;19948;-77
2022/03/18 10:27:13;;;;;;;12.32;3.53;;;;;;;9.42;55.82;104194.53;5016596;28;20036;-78
2022/03/18 10:29:46;;;;;;;12.20;3.92;;;;;;;9.47;55.04;104192.31;5016056;28;20099;-79
2022/03/18 10:32:12;;;;;;;9.88;3.72;;;;;;;9.54;55.25;104188.94;5014935;28;20092;-79
2022/03/18 10:37:25;;;;;;;9.52;3.22;;;;;;;9.74;55.04;104194.41;5015466;28;20053;-78
2022/03/18 10:39:59;;;;;;;7.20;2.95;;;;;;;9.83;54.86;104193.59;5024794;28;20033;-77
2022/03/18 10:42:24;;;;;;;11.65;3.10;;;;;;;9.91;53.79;104195.59;5015851;28;20481;-76
2022/03/18 10:44:51;;;;;;;8.85;3.20;;;;;;;9.98;53.76;104188.63;5015869;28;20161;-79
2022/03/18 10:47:26;;;;;;;6.15;2.70;;;;;;;10.04;53.54;104195.31;5015138;28;20409;-78
2022/03/18 10:49:54;;;;;;;6.60;3.00;;;;;;;10.09;52.41;104199.31;5028540;28;20480;-73
2022/03/18 10:52:23;;;;;;;10.00;3.10;;;;;;;10.16;52.69;104193.34;5035529;28;20025;-76
2022/03/18 10:54:49;;;;;;;8.57;2.95;;;;;;;10.22;52.83;104190.09;5036052;28;20468;-77
2022/03/18 10:57:17;;;;;;;8.82;3.20;;;;;;;10.29;52.58;104193.94;5029586;28;20030;-74
2022/03/18 10:59:42;;;;;;;9.23;3.15;;;;;;;10.40;52.22;104192.97;5018585;28;20057;-76
2022/03/18 11:02:14;;;;;;;12.30;3.20;;;;;;;10.46;52.11;104187.00;5023803;28;20465;-76
2022/03/18 11:04:41;;;;;;;8.48;3.53;;;;;;;10.57;51.66;104186.88;5016014;28;20041;-76
2022/03/18 11:12:47;;;;;;;9.38;3.58;;;;;;;10.73;51.69;104180.84;5015094;28;20098;-78
2022/03/18 11:15:15;;;;;;;8.73;3.30;;;;;;;10.79;51.38;104188.44;5018178;28;20029;-76
2022/03/18 11:17:42;;;;;;;15.20;3.70;;;;;;;10.88;51.47;104183.97;5035686;28;20028;-79
2022/03/18 11:20:10;;;;;;;15.32;3.47;;;;;;;10.99;51.55;104177.53;5035480;28;20045;-76
2022/03/18 11:22:37;;;;;;;7.20;3.03;;;;;;;11.04;51.99;104172.53;5035103;28;20037;-82
2022/03/18 11:25:03;;;;;;;13.57;3.58;;;;;;;11.10;50.52;104171.97;5034477;28;20457;-81
2022/03/18 11:27:29;;;;;;;9.65;3.38;;;;;;;11.15;50.57;104175.06;5022229;28;20088;-77
2022/03/18 11:30:17;;;;;;;8.85;3.20;;;;;;;11.29;52.03;104186.44;5015654;28;20448;-78
2022/03/18 11:32:42;;;;;;;8.45;2.88;;;;;;;11.38;50.72;104184.72;5006233;28;20033;-77
2022/03/18 11:35:08;;;;;;;8.60;3.33;;;;;;;11.48;50.27;104180.94;5015450;28;20026;-77
2022/03/18 11:37:33;;;;;;;11.60;3.42;;;;;;;11.52;49.35;104178.81;5014767;28;20117;-76
2022/03/18 11:40:21;;;;;;;11.00;4.03;;;;;;;11.58;50.21;104180.03;5015240;28;20470;-78
2022/03/18 11:42:49;;;;;;;8.20;3.47;;;;;;;11.60;49.72;104172.63;5014829;28;20083;-77
2022/03/18 11:45:36;;;;;;;10.27;3.80;;;;;;;11.71;49.39;104175.13;5015035;28;20161;-74
2022/03/18 11:48:34;;;;;;;12.60;3.47;;;;;;;11.75;49.64;104175.69;5014804;28;20123;-76